Union Center, Pennsylvania
Current Conditions -  °F | °C
As of 11:05 AM on Tuesday 21 Oct 2014 (Local Time) from KN38 Reporting Station
Overcast Overcast  
Wind Chill: 46°   Ceiling: 900
Heat Index: 48°   Visibility: 10mi
Dew Point: 48°   Wind: 6mph
Humidity: 100%   Direction: 270°W
Pressure: 29.86"   Gusts: NA
Location:  41.669°N, 76.8999°W
Report Text: KN38 211505Z AUTO 27005KT 10SM SCT005 BKN009 OVC014 09/09 A2986 RMK AO2
Loading
Personal Weather Stations






























Interactive Weather Map
Tropical Storm Tracking
New forecast layout! Learn more

10-Day Weather Forecast

Advertisements
Track Severe Weather on mobile